Terminal Aerodrome Forecast
Issued by NWS Sterling, VA

Current Version | Previous Version | Graphics & Text | Print | Product List | Glossary On
Versions: 1 2 3 4 5 6 7 8 9 10 11 12 13 14 15 16 17 18 19 20 21 22 23 24 25 26 27
567
FTUS41 KLWX 270444 AAA
TAFIAD
TAF AMD
KIAD 270444Z 2705/2806 20007KT 6SM -SHRA SCT008 BKN015 OVC050
     FM271300 33005KT 6SM BR BKN050 BKN070
     FM271600 31005KT P6SM FEW060
     FM271800 24004KT P6SM FEW060
     FM272100 18005KT P6SM SKC
     FM280300 00000KT 3SM BR SKC=

USA.gov is the U.S. government's official web portal to all federal, state and local government web resources and services.